sensor_id;sensor_type;location;lat;lon;timestamp;P1;durP1;ratioP1;P2;durP2;ratioP2
76589;SDS011;65471;55.908;37.880;2023-07-09T00:01:19;93.38;;;31.95;;
76589;SDS011;65471;55.908;37.880;2023-07-09T00:03:46;76.15;;;32.95;;
76589;SDS011;65471;55.908;37.880;2023-07-09T00:06:19;69.38;;;30.98;;
76589;SDS011;65471;55.908;37.880;2023-07-09T00:08:48;115.40;;;32.47;;
76589;SDS011;65471;55.908;37.880;2023-07-09T00:11:16;109.87;;;31.93;;
76589;SDS011;65471;55.908;37.880;2023-07-09T00:13:43;64.78;;;29.25;;
76589;SDS011;65471;55.908;37.880;2023-07-09T00:16:23;89.07;;;31.13;;
76589;SDS011;65471;55.908;37.880;2023-07-09T00:18:51;62.90;;;27.63;;
76589;SDS011;65471;55.908;37.880;2023-07-09T00:21:18;71.18;;;30.27;;
76589;SDS011;65471;55.908;37.880;2023-07-09T00:23:47;67.75;;;29.67;;
76589;SDS011;65471;55.908;37.880;2023-07-09T00:26:17;82.20;;;29.60;;
76589;SDS011;65471;55.908;37.880;2023-07-09T00:28:49;78.93;;;29.15;;
76589;SDS011;65471;55.908;37.880;2023-07-09T00:31:16;58.08;;;28.70;;
76589;SDS011;65471;55.908;37.880;2023-07-09T00:33:44;82.20;;;30.67;;
76589;SDS011;65471;55.908;37.880;2023-07-09T00:36:25;55.38;;;28.65;;
76589;SDS011;65471;55.908;37.880;2023-07-09T00:38:55;89.47;;;31.27;;
76589;SDS011;65471;55.908;37.880;2023-07-09T00:41:25;59.28;;;28.77;;
76589;SDS011;65471;55.908;37.880;2023-07-09T00:43:54;71.55;;;29.70;;
76589;SDS011;65471;55.908;37.880;2023-07-09T00:49:02;68.47;;;30.35;;
76589;SDS011;65471;55.908;37.880;2023-07-09T00:51:38;74.75;;;30.10;;
76589;SDS011;65471;55.908;37.880;2023-07-09T00:54:13;82.70;;;30.05;;
76589;SDS011;65471;55.908;37.880;2023-07-09T00:56:47;71.65;;;30.05;;
76589;SDS011;65471;55.908;37.880;2023-07-09T00:59:19;75.43;;;30.83;;
76589;SDS011;65471;55.908;37.880;2023-07-09T01:01:50;62.20;;;30.73;;
76589;SDS011;65471;55.908;37.880;2023-07-09T01:04:19;86.80;;;31.95;;
76589;SDS011;65471;55.908;37.880;2023-07-09T01:06:49;66.88;;;30.92;;
76589;SDS011;65471;55.908;37.880;2023-07-09T01:09:18;72.03;;;31.73;;
76589;SDS011;65471;55.908;37.880;2023-07-09T01:11:45;76.75;;;32.75;;
76589;SDS011;65471;55.908;37.880;2023-07-09T01:14:13;75.28;;;33.45;;
76589;SDS011;65471;55.908;37.880;2023-07-09T01:16:44;77.18;;;31.55;;
76589;SDS011;65471;55.908;37.880;2023-07-09T01:19:15;88.90;;;32.42;;
76589;SDS011;65471;55.908;37.880;2023-07-09T01:21:42;94.00;;;31.67;;
76589;SDS011;65471;55.908;37.880;2023-07-09T01:24:11;76.90;;;31.98;;
76589;SDS011;65471;55.908;37.880;2023-07-09T01:26:40;73.95;;;30.77;;
76589;SDS011;65471;55.908;37.880;2023-07-09T01:29:10;74.22;;;30.10;;
76589;SDS011;65471;55.908;37.880;2023-07-09T01:31:37;67.28;;;29.60;;
76589;SDS011;65471;55.908;37.880;2023-07-09T01:34:03;66.22;;;29.80;;
76589;SDS011;65471;55.908;37.880;2023-07-09T01:36:32;77.10;;;30.90;;
76589;SDS011;65471;55.908;37.880;2023-07-09T01:38:58;72.15;;;29.38;;
76589;SDS011;65471;55.908;37.880;2023-07-09T01:41:26;62.22;;;29.30;;
76589;SDS011;65471;55.908;37.880;2023-07-09T01:43:53;70.57;;;32.90;;
76589;SDS011;65471;55.908;37.880;2023-07-09T01:46:20;70.35;;;31.27;;
76589;SDS011;65471;55.908;37.880;2023-07-09T01:48:48;62.65;;;29.08;;
76589;SDS011;65471;55.908;37.880;2023-07-09T01:53:43;66.10;;;28.02;;
76589;SDS011;65471;55.908;37.880;2023-07-09T01:56:11;65.72;;;29.15;;
76589;SDS011;65471;55.908;37.880;2023-07-09T01:58:38;77.88;;;29.63;;
76589;SDS011;65471;55.908;37.880;2023-07-09T02:01:09;76.43;;;29.55;;
76589;SDS011;65471;55.908;37.880;2023-07-09T02:03:36;75.67;;;28.23;;
76589;SDS011;65471;55.908;37.880;2023-07-09T02:06:03;59.63;;;29.08;;
76589;SDS011;65471;55.908;37.880;2023-07-09T02:08:36;55.03;;;28.77;;
76589;SDS011;65471;55.908;37.880;2023-07-09T02:11:03;78.68;;;28.23;;
76589;SDS011;65471;55.908;37.880;2023-07-09T02:13:30;72.35;;;29.23;;
76589;SDS011;65471;55.908;37.880;2023-07-09T02:15:57;61.50;;;29.45;;
76589;SDS011;65471;55.908;37.880;2023-07-09T02:18:25;55.00;;;26.95;;
76589;SDS011;65471;55.908;37.880;2023-07-09T02:20:52;57.93;;;28.43;;
76589;SDS011;65471;55.908;37.880;2023-07-09T02:23:19;59.60;;;27.23;;
76589;SDS011;65471;55.908;37.880;2023-07-09T02:25:46;62.10;;;28.30;;
76589;SDS011;65471;55.908;37.880;2023-07-09T02:28:12;65.05;;;28.38;;
76589;SDS011;65471;55.908;37.880;2023-07-09T02:30:39;74.95;;;29.10;;
76589;SDS011;65471;55.908;37.880;2023-07-09T02:33:06;60.15;;;28.80;;
76589;SDS011;65471;55.908;37.880;2023-07-09T02:35:33;75.03;;;28.60;;
76589;SDS011;65471;55.908;37.880;2023-07-09T02:38:02;70.80;;;28.13;;
76589;SDS011;65471;55.908;37.880;2023-07-09T02:40:30;53.47;;;28.88;;
76589;SDS011;65471;55.908;37.880;2023-07-09T02:42:57;71.28;;;29.23;;
76589;SDS011;65471;55.908;37.880;2023-07-09T02:45:23;65.05;;;29.65;;
76589;SDS011;65471;55.908;37.880;2023-07-09T02:47:50;69.70;;;28.50;;
76589;SDS011;65471;55.908;37.880;2023-07-09T02:50:17;63.10;;;27.38;;
76589;SDS011;65471;55.908;37.880;2023-07-09T02:52:44;54.75;;;24.95;;
76589;SDS011;65471;55.908;37.880;2023-07-09T02:55:11;48.00;;;24.17;;
76589;SDS011;65471;55.908;37.880;2023-07-09T02:57:38;62.45;;;25.42;;
76589;SDS011;65471;55.908;37.880;2023-07-09T03:00:05;53.85;;;25.08;;
76589;SDS011;65471;55.908;37.880;2023-07-09T03:02:33;77.03;;;26.42;;
76589;SDS011;65471;55.908;37.880;2023-07-09T03:05:01;72.05;;;27.70;;
76589;SDS011;65471;55.908;37.880;2023-07-09T03:07:29;69.75;;;27.08;;
76589;SDS011;65471;55.908;37.880;2023-07-09T03:09:56;65.43;;;28.65;;
76589;SDS011;65471;55.908;37.880;2023-07-09T03:12:22;63.75;;;25.85;;
76589;SDS011;65471;55.908;37.880;2023-07-09T03:14:49;59.58;;;24.15;;
76589;SDS011;65471;55.908;37.880;2023-07-09T03:17:16;54.67;;;22.33;;
76589;SDS011;65471;55.908;37.880;2023-07-09T03:19:43;52.42;;;24.30;;
76589;SDS011;65471;55.908;37.880;2023-07-09T03:22:10;57.72;;;23.58;;
76589;SDS011;65471;55.908;37.880;2023-07-09T03:24:37;49.13;;;22.90;;
76589;SDS011;65471;55.908;37.880;2023-07-09T03:27:03;77.65;;;22.77;;
76589;SDS011;65471;55.908;37.880;2023-07-09T03:29:31;39.92;;;20.85;;
76589;SDS011;65471;55.908;37.880;2023-07-09T03:31:57;47.75;;;19.73;;
76589;SDS011;65471;55.908;37.880;2023-07-09T03:34:24;59.53;;;20.35;;
76589;SDS011;65471;55.908;37.880;2023-07-09T03:36:51;61.58;;;19.70;;
76589;SDS011;65471;55.908;37.880;2023-07-09T03:39:18;60.25;;;21.55;;
76589;SDS011;65471;55.908;37.880;2023-07-09T03:41:45;48.47;;;19.30;;
76589;SDS011;65471;55.908;37.880;2023-07-09T03:44:12;48.10;;;20.20;;
76589;SDS011;65471;55.908;37.880;2023-07-09T03:46:39;58.92;;;19.48;;
76589;SDS011;65471;55.908;37.880;2023-07-09T03:49:06;41.67;;;20.73;;
76589;SDS011;65471;55.908;37.880;2023-07-09T03:51:33;39.70;;;18.92;;
76589;SDS011;65471;55.908;37.880;2023-07-09T03:53:59;37.22;;;18.55;;
76589;SDS011;65471;55.908;37.880;2023-07-09T03:56:26;40.70;;;18.25;;
76589;SDS011;65471;55.908;37.880;2023-07-09T03:58:53;37.67;;;17.58;;
76589;SDS011;65471;55.908;37.880;2023-07-09T04:01:20;36.97;;;17.60;;
76589;SDS011;65471;55.908;37.880;2023-07-09T04:03:48;35.58;;;17.83;;
76589;SDS011;65471;55.908;37.880;2023-07-09T04:06:15;34.20;;;15.55;;
76589;SDS011;65471;55.908;37.880;2023-07-09T04:08:42;31.73;;;16.63;;
76589;SDS011;65471;55.908;37.880;2023-07-09T04:11:09;31.80;;;16.63;;
76589;SDS011;65471;55.908;37.880;2023-07-09T04:13:36;34.00;;;15.65;;
76589;SDS011;65471;55.908;37.880;2023-07-09T04:16:03;27.00;;;15.90;;
76589;SDS011;65471;55.908;37.880;2023-07-09T04:18:30;30.83;;;15.10;;
76589;SDS011;65471;55.908;37.880;2023-07-09T04:20:57;30.48;;;15.27;;
76589;SDS011;65471;55.908;37.880;2023-07-09T04:23:24;25.15;;;12.48;;
76589;SDS011;65471;55.908;37.880;2023-07-09T04:25:51;24.77;;;12.10;;
76589;SDS011;65471;55.908;37.880;2023-07-09T04:28:17;18.55;;;11.73;;
76589;SDS011;65471;55.908;37.880;2023-07-09T04:30:50;27.45;;;12.35;;
76589;SDS011;65471;55.908;37.880;2023-07-09T04:33:18;21.10;;;12.93;;
76589;SDS011;65471;55.908;37.880;2023-07-09T04:35:47;21.98;;;11.55;;
76589;SDS011;65471;55.908;37.880;2023-07-09T04:38:15;40.83;;;10.88;;
76589;SDS011;65471;55.908;37.880;2023-07-09T04:40:42;19.83;;;11.13;;
76589;SDS011;65471;55.908;37.880;2023-07-09T04:43:10;27.65;;;11.02;;
76589;SDS011;65471;55.908;37.880;2023-07-09T04:45:36;18.30;;;10.48;;
76589;SDS011;65471;55.908;37.880;2023-07-09T04:48:04;15.95;;;9.10;;
76589;SDS011;65471;55.908;37.880;2023-07-09T04:50:31;23.50;;;10.27;;
76589;SDS011;65471;55.908;37.880;2023-07-09T04:52:58;15.43;;;9.60;;
76589;SDS011;65471;55.908;37.880;2023-07-09T04:55:26;20.08;;;8.25;;
76589;SDS011;65471;55.908;37.880;2023-07-09T04:57:53;10.15;;;8.02;;
76589;SDS011;65471;55.908;37.880;2023-07-09T05:00:20;9.65;;;6.97;;
76589;SDS011;65471;55.908;37.880;2023-07-09T05:02:47;12.65;;;7.32;;
76589;SDS011;65471;55.908;37.880;2023-07-09T05:05:15;12.70;;;7.82;;
76589;SDS011;65471;55.908;37.880;2023-07-09T05:07:42;12.52;;;7.63;;
76589;SDS011;65471;55.908;37.880;2023-07-09T05:10:09;23.40;;;7.63;;
76589;SDS011;65471;55.908;37.880;2023-07-09T05:12:46;13.40;;;7.53;;
76589;SDS011;65471;55.908;37.880;2023-07-09T05:15:14;14.60;;;7.50;;
76589;SDS011;65471;55.908;37.880;2023-07-09T05:17:41;15.15;;;6.78;;
76589;SDS011;65471;55.908;37.880;2023-07-09T05:20:08;9.15;;;6.47;;
76589;SDS011;65471;55.908;37.880;2023-07-09T05:22:35;16.15;;;6.72;;
76589;SDS011;65471;55.908;37.880;2023-07-09T05:25:02;21.10;;;7.07;;
76589;SDS011;65471;55.908;37.880;2023-07-09T05:27:29;8.20;;;6.15;;
76589;SDS011;65471;55.908;37.880;2023-07-09T05:29:56;17.25;;;6.88;;
76589;SDS011;65471;55.908;37.880;2023-07-09T05:32:24;8.35;;;6.30;;
76589;SDS011;65471;55.908;37.880;2023-07-09T05:34:51;26.25;;;6.43;;
76589;SDS011;65471;55.908;37.880;2023-07-09T05:37:18;11.27;;;6.38;;
76589;SDS011;65471;55.908;37.880;2023-07-09T05:39:45;8.88;;;6.20;;
76589;SDS011;65471;55.908;37.880;2023-07-09T05:42:11;14.55;;;5.47;;
76589;SDS011;65471;55.908;37.880;2023-07-09T05:44:38;13.88;;;4.55;;
76589;SDS011;65471;55.908;37.880;2023-07-09T05:47:05;9.00;;;4.70;;
76589;SDS011;65471;55.908;37.880;2023-07-09T05:49:32;10.98;;;5.28;;
76589;SDS011;65471;55.908;37.880;2023-07-09T05:51:59;9.30;;;5.32;;
76589;SDS011;65471;55.908;37.880;2023-07-09T05:54:26;10.18;;;3.92;;
76589;SDS011;65471;55.908;37.880;2023-07-09T05:56:52;13.50;;;5.35;;
76589;SDS011;65471;55.908;37.880;2023-07-09T05:59:19;8.98;;;5.38;;
76589;SDS011;65471;55.908;37.880;2023-07-09T06:01:46;7.40;;;5.03;;
76589;SDS011;65471;55.908;37.880;2023-07-09T06:04:13;5.63;;;5.22;;
76589;SDS011;65471;55.908;37.880;2023-07-09T06:06:40;6.55;;;4.63;;
76589;SDS011;65471;55.908;37.880;2023-07-09T06:09:08;19.45;;;4.80;;
76589;SDS011;65471;55.908;37.880;2023-07-09T06:11:35;4.40;;;4.00;;
76589;SDS011;65471;55.908;37.880;2023-07-09T06:14:02;5.85;;;3.42;;
76589;SDS011;65471;55.908;37.880;2023-07-09T06:16:29;16.67;;;5.10;;
76589;SDS011;65471;55.908;37.880;2023-07-09T06:18:56;9.07;;;4.03;;
76589;SDS011;65471;55.908;37.880;2023-07-09T06:21:23;6.22;;;4.13;;
76589;SDS011;65471;55.908;37.880;2023-07-09T06:23:49;7.85;;;4.40;;
76589;SDS011;65471;55.908;37.880;2023-07-09T06:26:17;6.53;;;4.20;;
76589;SDS011;65471;55.908;37.880;2023-07-09T06:28:43;7.15;;;3.80;;
76589;SDS011;65471;55.908;37.880;2023-07-09T06:31:10;10.63;;;4.43;;
76589;SDS011;65471;55.908;37.880;2023-07-09T06:33:37;10.10;;;4.55;;
76589;SDS011;65471;55.908;37.880;2023-07-09T06:36:04;5.65;;;3.92;;
76589;SDS011;65471;55.908;37.880;2023-07-09T06:41:00;6.10;;;4.47;;
76589;SDS011;65471;55.908;37.880;2023-07-09T06:43:26;6.32;;;4.40;;
76589;SDS011;65471;55.908;37.880;2023-07-09T06:46:00;10.75;;;3.88;;
76589;SDS011;65471;55.908;37.880;2023-07-09T06:48:28;7.72;;;4.13;;
76589;SDS011;65471;55.908;37.880;2023-07-09T06:50:56;13.38;;;5.70;;
76589;SDS011;65471;55.908;37.880;2023-07-09T06:55:51;7.35;;;4.43;;
76589;SDS011;65471;55.908;37.880;2023-07-09T06:58:28;42.42;;;5.30;;
76589;SDS011;65471;55.908;37.880;2023-07-09T07:00:59;18.30;;;4.88;;
76589;SDS011;65471;55.908;37.880;2023-07-09T07:03:30;8.10;;;4.25;;
76589;SDS011;65471;55.908;37.880;2023-07-09T07:05:58;12.40;;;4.43;;
76589;SDS011;65471;55.908;37.880;2023-07-09T07:08:26;5.53;;;3.83;;
76589;SDS011;65471;55.908;37.880;2023-07-09T07:10:57;6.55;;;3.72;;
76589;SDS011;65471;55.908;37.880;2023-07-09T07:13:29;11.25;;;5.50;;
76589;SDS011;65471;55.908;37.880;2023-07-09T07:15:57;4.22;;;3.90;;
76589;SDS011;65471;55.908;37.880;2023-07-09T07:18:24;4.68;;;3.97;;
76589;SDS011;65471;55.908;37.880;2023-07-09T07:20:51;16.13;;;4.40;;
76589;SDS011;65471;55.908;37.880;2023-07-09T07:23:18;4.35;;;3.72;;
76589;SDS011;65471;55.908;37.880;2023-07-09T07:25:45;7.97;;;4.28;;
76589;SDS011;65471;55.908;37.880;2023-07-09T07:28:13;3.67;;;3.47;;
76589;SDS011;65471;55.908;37.880;2023-07-09T07:30:40;12.70;;;4.10;;
76589;SDS011;65471;55.908;37.880;2023-07-09T07:33:07;8.77;;;3.97;;
76589;SDS011;65471;55.908;37.880;2023-07-09T07:35:34;9.02;;;4.07;;
76589;SDS011;65471;55.908;37.880;2023-07-09T07:38:00;11.77;;;4.60;;
76589;SDS011;65471;55.908;37.880;2023-07-09T07:40:27;7.72;;;4.30;;
76589;SDS011;65471;55.908;37.880;2023-07-09T07:42:54;4.70;;;4.30;;
76589;SDS011;65471;55.908;37.880;2023-07-09T07:45:21;11.77;;;5.13;;
76589;SDS011;65471;55.908;37.880;2023-07-09T07:47:48;14.52;;;5.03;;
76589;SDS011;65471;55.908;37.880;2023-07-09T07:50:18;9.13;;;4.35;;
76589;SDS011;65471;55.908;37.880;2023-07-09T07:52:45;5.63;;;5.03;;
76589;SDS011;65471;55.908;37.880;2023-07-09T07:55:11;17.13;;;4.45;;
76589;SDS011;65471;55.908;37.880;2023-07-09T07:57:45;10.55;;;4.20;;
76589;SDS011;65471;55.908;37.880;2023-07-09T08:00:11;7.18;;;3.92;;
76589;SDS011;65471;55.908;37.880;2023-07-09T08:02:39;8.93;;;4.15;;
76589;SDS011;65471;55.908;37.880;2023-07-09T08:05:06;4.75;;;3.80;;
76589;SDS011;65471;55.908;37.880;2023-07-09T08:07:33;9.65;;;3.80;;
76589;SDS011;65471;55.908;37.880;2023-07-09T08:10:00;15.57;;;3.88;;
76589;SDS011;65471;55.908;37.880;2023-07-09T08:12:26;25.00;;;4.68;;
76589;SDS011;65471;55.908;37.880;2023-07-09T08:14:53;9.40;;;3.83;;
76589;SDS011;65471;55.908;37.880;2023-07-09T08:17:20;4.60;;;4.10;;
76589;SDS011;65471;55.908;37.880;2023-07-09T08:19:48;6.03;;;4.00;;
76589;SDS011;65471;55.908;37.880;2023-07-09T08:22:17;3.70;;;3.40;;
76589;SDS011;65471;55.908;37.880;2023-07-09T08:24:43;41.13;;;5.15;;
76589;SDS011;65471;55.908;37.880;2023-07-09T08:27:10;20.45;;;4.03;;
76589;SDS011;65471;55.908;37.880;2023-07-09T08:29:37;34.42;;;4.07;;
76589;SDS011;65471;55.908;37.880;2023-07-09T08:34:32;3.78;;;3.33;;
76589;SDS011;65471;55.908;37.880;2023-07-09T08:36:59;7.22;;;3.58;;
76589;SDS011;65471;55.908;37.880;2023-07-09T08:39:26;4.03;;;3.72;;
76589;SDS011;65471;55.908;37.880;2023-07-09T08:42:11;7.70;;;3.80;;
76589;SDS011;65471;55.908;37.880;2023-07-09T08:50:40;5.50;;;3.60;;
76589;SDS011;65471;55.908;37.880;2023-07-09T08:53:13;5.07;;;3.58;;
76589;SDS011;65471;55.908;37.880;2023-07-09T08:55:48;9.18;;;3.72;;
76589;SDS011;65471;55.908;37.880;2023-07-09T08:58:20;3.42;;;3.20;;
76589;SDS011;65471;55.908;37.880;2023-07-09T09:00:53;5.47;;;3.55;;
76589;SDS011;65471;55.908;37.880;2023-07-09T09:06:16;5.53;;;3.80;;
76589;SDS011;65471;55.908;37.880;2023-07-09T09:11:59;12.70;;;3.95;;
76589;SDS011;65471;55.908;37.880;2023-07-09T09:14:31;4.20;;;3.90;;
76589;SDS011;65471;55.908;37.880;2023-07-09T09:17:02;6.05;;;3.88;;
76589;SDS011;65471;55.908;37.880;2023-07-09T09:19:37;8.10;;;5.05;;
76589;SDS011;65471;55.908;37.880;2023-07-09T09:22:10;6.95;;;3.75;;
76589;SDS011;65471;55.908;37.880;2023-07-09T09:27:30;14.43;;;4.25;;
76589;SDS011;65471;55.908;37.880;2023-07-09T09:29:57;16.60;;;4.07;;
76589;SDS011;65471;55.908;37.880;2023-07-09T09:32:28;5.30;;;3.95;;
76589;SDS011;65471;55.908;37.880;2023-07-09T09:34:57;14.05;;;3.67;;
76589;SDS011;65471;55.908;37.880;2023-07-09T09:37:29;4.13;;;3.53;;
76589;SDS011;65471;55.908;37.880;2023-07-09T09:40:00;4.32;;;3.50;;
76589;SDS011;65471;55.908;37.880;2023-07-09T09:42:43;4.25;;;3.78;;
76589;SDS011;65471;55.908;37.880;2023-07-09T09:45:14;7.45;;;4.38;;
76589;SDS011;65471;55.908;37.880;2023-07-09T09:47:45;13.57;;;5.03;;
76589;SDS011;65471;55.908;37.880;2023-07-09T09:50:14;10.00;;;3.88;;
76589;SDS011;65471;55.908;37.880;2023-07-09T09:52:46;4.82;;;4.43;;
76589;SDS011;65471;55.908;37.880;2023-07-09T09:55:22;3.35;;;3.15;;
76589;SDS011;65471;55.908;37.880;2023-07-09T09:57:52;17.83;;;3.63;;
76589;SDS011;65471;55.908;37.880;2023-07-09T10:00:22;5.38;;;4.18;;
76589;SDS011;65471;55.908;37.880;2023-07-09T10:02:58;3.28;;;3.08;;
76589;SDS011;65471;55.908;37.880;2023-07-09T10:05:35;4.43;;;3.88;;
76589;SDS011;65471;55.908;37.880;2023-07-09T10:08:08;4.10;;;3.70;;
76589;SDS011;65471;55.908;37.880;2023-07-09T10:10:43;4.45;;;4.15;;
76589;SDS011;65471;55.908;37.880;2023-07-09T10:26:39;4.00;;;3.65;;
76589;SDS011;65471;55.908;37.880;2023-07-09T10:32:14;12.57;;;3.92;;
76589;SDS011;65471;55.908;37.880;2023-07-09T10:34:58;8.50;;;4.15;;
76589;SDS011;65471;55.908;37.880;2023-07-09T10:37:49;17.40;;;4.13;;
76589;SDS011;65471;55.908;37.880;2023-07-09T10:40:31;10.05;;;3.88;;
76589;SDS011;65471;55.908;37.880;2023-07-09T10:43:12;6.13;;;4.93;;
76589;SDS011;65471;55.908;37.880;2023-07-09T10:45:47;9.80;;;5.63;;
76589;SDS011;65471;55.908;37.880;2023-07-09T10:48:25;8.30;;;5.68;;
76589;SDS011;65471;55.908;37.880;2023-07-09T10:50:59;7.72;;;5.82;;
76589;SDS011;65471;55.908;37.880;2023-07-09T10:53:46;9.93;;;5.70;;
76589;SDS011;65471;55.908;37.880;2023-07-09T10:56:20;10.20;;;5.80;;
76589;SDS011;65471;55.908;37.880;2023-07-09T10:59:01;22.02;;;5.80;;
76589;SDS011;65471;55.908;37.880;2023-07-09T11:01:51;12.02;;;5.93;;
76589;SDS011;65471;55.908;37.880;2023-07-09T11:09:59;9.02;;;4.22;;
76589;SDS011;65471;55.908;37.880;2023-07-09T11:12:38;11.30;;;4.53;;
76589;SDS011;65471;55.908;37.880;2023-07-09T11:15:11;14.98;;;4.40;;
76589;SDS011;65471;55.908;37.880;2023-07-09T11:17:43;13.43;;;4.18;;
76589;SDS011;65471;55.908;37.880;2023-07-09T11:20:20;7.22;;;4.05;;
76589;SDS011;65471;55.908;37.880;2023-07-09T11:23:02;7.13;;;4.10;;
76589;SDS011;65471;55.908;37.880;2023-07-09T11:25:40;5.95;;;3.83;;
76589;SDS011;65471;55.908;37.880;2023-07-09T11:28:09;15.50;;;4.15;;
76589;SDS011;65471;55.908;37.880;2023-07-09T11:30:46;5.93;;;3.87;;
76589;SDS011;65471;55.908;37.880;2023-07-09T11:33:17;4.33;;;3.97;;
76589;SDS011;65471;55.908;37.880;2023-07-09T11:35:54;5.93;;;3.58;;
76589;SDS011;65471;55.908;37.880;2023-07-09T11:41:26;4.90;;;4.22;;
76589;SDS011;65471;55.908;37.880;2023-07-09T11:44:02;4.72;;;4.22;;
76589;SDS011;65471;55.908;37.880;2023-07-09T11:46:35;10.85;;;4.10;;
76589;SDS011;65471;55.908;37.880;2023-07-09T11:49:10;5.53;;;4.43;;
76589;SDS011;65471;55.908;37.880;2023-07-09T11:51:40;11.90;;;4.50;;
76589;SDS011;65471;55.908;37.880;2023-07-09T11:54:11;17.58;;;4.43;;
76589;SDS011;65471;55.908;37.880;2023-07-09T11:56:40;12.05;;;3.90;;
76589;SDS011;65471;55.908;37.880;2023-07-09T11:59:07;6.78;;;4.13;;
76589;SDS011;65471;55.908;37.880;2023-07-09T12:01:44;9.88;;;3.50;;
76589;SDS011;65471;55.908;37.880;2023-07-09T12:04:17;41.03;;;4.60;;
76589;SDS011;65471;55.908;37.880;2023-07-09T12:06:45;4.18;;;3.65;;
76589;SDS011;65471;55.908;37.880;2023-07-09T12:09:17;27.10;;;4.13;;
76589;SDS011;65471;55.908;37.880;2023-07-09T12:11:48;17.17;;;4.13;;
76589;SDS011;65471;55.908;37.880;2023-07-09T12:14:17;23.15;;;4.07;;
76589;SDS011;65471;55.908;37.880;2023-07-09T12:16:48;10.82;;;3.83;;
76589;SDS011;65471;55.908;37.880;2023-07-09T12:19:20;7.28;;;3.95;;
76589;SDS011;65471;55.908;37.880;2023-07-09T12:21:50;4.15;;;3.75;;
76589;SDS011;65471;55.908;37.880;2023-07-09T12:24:23;12.73;;;3.90;;
76589;SDS011;65471;55.908;37.880;2023-07-09T12:26:54;8.98;;;3.70;;
76589;SDS011;65471;55.908;37.880;2023-07-09T12:29:28;14.88;;;4.45;;
76589;SDS011;65471;55.908;37.880;2023-07-09T12:31:57;5.53;;;4.18;;
76589;SDS011;65471;55.908;37.880;2023-07-09T12:34:25;4.35;;;3.85;;
76589;SDS011;65471;55.908;37.880;2023-07-09T12:36:52;9.80;;;4.55;;
76589;SDS011;65471;55.908;37.880;2023-07-09T12:39:29;4.85;;;4.22;;
76589;SDS011;65471;55.908;37.880;2023-07-09T12:42:00;11.40;;;6.07;;
76589;SDS011;65471;55.908;37.880;2023-07-09T12:44:29;14.65;;;6.22;;
76589;SDS011;65471;55.908;37.880;2023-07-09T12:47:00;9.95;;;5.97;;
76589;SDS011;65471;55.908;37.880;2023-07-09T12:49:28;12.98;;;4.57;;
76589;SDS011;65471;55.908;37.880;2023-07-09T12:52:00;6.95;;;4.35;;
76589;SDS011;65471;55.908;37.880;2023-07-09T12:54:28;12.68;;;4.53;;
76589;SDS011;65471;55.908;37.880;2023-07-09T12:56:58;5.60;;;4.10;;
76589;SDS011;65471;55.908;37.880;2023-07-09T12:59:37;10.65;;;4.63;;
76589;SDS011;65471;55.908;37.880;2023-07-09T13:02:18;21.05;;;4.95;;
76589;SDS011;65471;55.908;37.880;2023-07-09T13:04:46;15.73;;;4.70;;
76589;SDS011;65471;55.908;37.880;2023-07-09T13:09:53;6.03;;;4.68;;
76589;SDS011;65471;55.908;37.880;2023-07-09T13:12:31;8.00;;;4.43;;
76589;SDS011;65471;55.908;37.880;2023-07-09T13:14:59;17.50;;;4.63;;
76589;SDS011;65471;55.908;37.880;2023-07-09T13:17:30;4.60;;;4.20;;
76589;SDS011;65471;55.908;37.880;2023-07-09T13:19:58;8.05;;;4.35;;
76589;SDS011;65471;55.908;37.880;2023-07-09T13:22:27;9.30;;;4.22;;
76589;SDS011;65471;55.908;37.880;2023-07-09T13:24:55;8.25;;;4.10;;
76589;SDS011;65471;55.908;37.880;2023-07-09T13:27:21;11.50;;;4.75;;
76589;SDS011;65471;55.908;37.880;2023-07-09T13:32:17;18.27;;;4.13;;
76589;SDS011;65471;55.908;37.880;2023-07-09T13:34:44;6.25;;;4.07;;
76589;SDS011;65471;55.908;37.880;2023-07-09T13:37:12;13.52;;;4.72;;
76589;SDS011;65471;55.908;37.880;2023-07-09T13:39:40;8.95;;;3.97;;
76589;SDS011;65471;55.908;37.880;2023-07-09T13:42:13;8.27;;;4.30;;
76589;SDS011;65471;55.908;37.880;2023-07-09T13:44:43;4.85;;;4.03;;
76589;SDS011;65471;55.908;37.880;2023-07-09T13:47:13;7.13;;;3.72;;
76589;SDS011;65471;55.908;37.880;2023-07-09T13:49:45;8.40;;;3.88;;
76589;SDS011;65471;55.908;37.880;2023-07-09T13:52:17;10.82;;;4.43;;
76589;SDS011;65471;55.908;37.880;2023-07-09T13:54:46;10.13;;;5.65;;
76589;SDS011;65471;55.908;37.880;2023-07-09T13:57:16;9.63;;;4.50;;
76589;SDS011;65471;55.908;37.880;2023-07-09T13:59:45;23.08;;;4.93;;
76589;SDS011;65471;55.908;37.880;2023-07-09T14:04:53;12.50;;;4.80;;
76589;SDS011;65471;55.908;37.880;2023-07-09T14:09:56;6.25;;;5.57;;
76589;SDS011;65471;55.908;37.880;2023-07-09T14:12:23;16.38;;;5.90;;
76589;SDS011;65471;55.908;37.880;2023-07-09T14:14:51;17.97;;;7.67;;
76589;SDS011;65471;55.908;37.880;2023-07-09T14:17:19;30.40;;;7.28;;
76589;SDS011;65471;55.908;37.880;2023-07-09T14:19:47;36.45;;;7.60;;
76589;SDS011;65471;55.908;37.880;2023-07-09T14:22:19;51.97;;;7.00;;
76589;SDS011;65471;55.908;37.880;2023-07-09T14:24:49;22.27;;;6.18;;
76589;SDS011;65471;55.908;37.880;2023-07-09T14:27:16;21.83;;;6.13;;
76589;SDS011;65471;55.908;37.880;2023-07-09T14:29:44;25.23;;;6.80;;
76589;SDS011;65471;55.908;37.880;2023-07-09T14:35:02;21.95;;;6.55;;
76589;SDS011;65471;55.908;37.880;2023-07-09T14:37:35;21.67;;;6.07;;
76589;SDS011;65471;55.908;37.880;2023-07-09T14:40:02;14.00;;;5.78;;
76589;SDS011;65471;55.908;37.880;2023-07-09T14:42:31;15.75;;;6.35;;
76589;SDS011;65471;55.908;37.880;2023-07-09T14:44:58;9.90;;;5.88;;
76589;SDS011;65471;55.908;37.880;2023-07-09T14:47:25;27.48;;;7.03;;
76589;SDS011;65471;55.908;37.880;2023-07-09T14:49:54;16.73;;;6.75;;
76589;SDS011;65471;55.908;37.880;2023-07-09T14:52:21;23.98;;;7.07;;
76589;SDS011;65471;55.908;37.880;2023-07-09T14:54:48;14.00;;;5.63;;
76589;SDS011;65471;55.908;37.880;2023-07-09T14:57:18;15.50;;;6.28;;
76589;SDS011;65471;55.908;37.880;2023-07-09T14:59:52;13.80;;;5.90;;
76589;SDS011;65471;55.908;37.880;2023-07-09T15:02:28;27.95;;;5.72;;
76589;SDS011;65471;55.908;37.880;2023-07-09T15:05:02;14.05;;;5.05;;
76589;SDS011;65471;55.908;37.880;2023-07-09T15:07:30;22.13;;;4.93;;
76589;SDS011;65471;55.908;37.880;2023-07-09T15:09:57;21.27;;;4.85;;
76589;SDS011;65471;55.908;37.880;2023-07-09T15:15:11;28.75;;;4.80;;
76589;SDS011;65471;55.908;37.880;2023-07-09T15:17:41;57.75;;;5.78;;
76589;SDS011;65471;55.908;37.880;2023-07-09T15:20:15;39.53;;;4.90;;
76589;SDS011;65471;55.908;37.880;2023-07-09T15:22:44;11.52;;;4.63;;
76589;SDS011;65471;55.908;37.880;2023-07-09T15:25:13;12.77;;;4.05;;
76589;SDS011;65471;55.908;37.880;2023-07-09T15:27:46;18.70;;;4.97;;
76589;SDS011;65471;55.908;37.880;2023-07-09T15:30:18;7.73;;;4.87;;
76589;SDS011;65471;55.908;37.880;2023-07-09T15:32:47;6.75;;;4.68;;
76589;SDS011;65471;55.908;37.880;2023-07-09T15:35:16;7.25;;;5.07;;
76589;SDS011;65471;55.908;37.880;2023-07-09T15:37:45;9.15;;;5.00;;
76589;SDS011;65471;55.908;37.880;2023-07-09T15:40:19;13.75;;;4.57;;
76589;SDS011;65471;55.908;37.880;2023-07-09T15:42:49;13.15;;;4.57;;